createdAt,value
2022-11-13T00:01:58.390Z,1.38
2022-11-13T00:06:59.917Z,1.30
2022-11-13T00:12:01.400Z,0.85
2022-11-13T00:17:02.823Z,0.98
2022-11-13T00:22:04.316Z,0.85
2022-11-13T00:27:05.791Z,0.80
2022-11-13T00:32:07.216Z,0.63
2022-11-13T00:37:08.630Z,0.95
2022-11-13T00:42:10.052Z,0.65
2022-11-13T00:47:11.604Z,0.70
2022-11-13T00:52:12.996Z,0.75
2022-11-13T00:57:14.391Z,0.80
2022-11-13T01:02:15.798Z,0.68
2022-11-13T01:07:17.481Z,0.75
2022-11-13T01:12:18.978Z,0.60
2022-11-13T01:17:20.403Z,0.75
2022-11-13T01:22:21.806Z,0.90
2022-11-13T01:27:23.247Z,0.68
2022-11-13T01:32:24.670Z,1.92
2022-11-13T01:37:26.120Z,1.17
2022-11-13T01:42:27.571Z,0.82
2022-11-13T01:47:29.388Z,0.60
2022-11-13T01:52:33.604Z,0.88
2022-11-13T01:57:35.372Z,0.50
2022-11-13T02:02:36.998Z,0.60
2022-11-13T02:07:38.471Z,0.70
2022-11-13T02:12:42.430Z,0.77
2022-11-13T02:17:48.737Z,0.70
2022-11-13T02:22:59.060Z,0.60
2022-11-13T02:33:02.316Z,0.73
2022-11-13T02:38:04.763Z,0.60
2022-11-13T02:43:06.244Z,0.60
2022-11-13T02:48:08.005Z,0.50
2022-11-13T02:53:09.460Z,0.68
2022-11-13T02:58:10.900Z,0.40
2022-11-13T03:03:12.307Z,0.70
2022-11-13T03:08:13.704Z,0.70
2022-11-13T03:13:15.151Z,0.75
2022-11-13T03:18:17.125Z,0.63
2022-11-13T03:23:18.520Z,0.75
2022-11-13T03:28:20.011Z,0.90
2022-11-13T03:33:21.497Z,0.68
2022-11-13T03:38:23.199Z,1.00
2022-11-13T03:43:24.694Z,0.93
2022-11-13T03:48:26.682Z,1.30
2022-11-13T03:53:28.380Z,0.50
2022-11-13T03:58:29.989Z,0.65
2022-11-13T04:03:31.635Z,0.63
2022-11-13T04:08:33.054Z,0.57
2022-11-13T04:13:34.625Z,0.80
2022-11-13T04:18:36.054Z,0.90
2022-11-13T04:23:37.430Z,0.50
2022-11-13T04:28:38.852Z,0.50
2022-11-13T04:33:40.277Z,0.47
2022-11-13T04:38:41.683Z,0.40
2022-11-13T04:43:43.219Z,0.50
2022-11-13T04:48:44.702Z,0.38
2022-11-13T04:53:46.123Z,0.30
2022-11-13T04:58:47.514Z,0.40
2022-11-13T05:03:48.978Z,0.40
2022-11-13T05:08:50.435Z,0.30
2022-11-13T05:13:51.853Z,0.40
2022-11-13T05:18:53.279Z,0.77
2022-11-13T05:23:54.704Z,0.47
2022-11-13T05:28:59.983Z,0.35
2022-11-13T05:34:05.916Z,0.20
2022-11-13T05:39:07.777Z,0.38
2022-11-13T05:44:09.318Z,0.25
2022-11-13T05:49:10.944Z,0.40
2022-11-13T05:54:12.331Z,0.50
2022-11-13T05:59:13.711Z,0.50
2022-11-13T06:04:15.123Z,0.28
2022-11-13T06:09:17.547Z,0.30
2022-11-13T06:14:19.019Z,0.30
2022-11-13T06:19:20.443Z,0.35
2022-11-13T06:24:21.905Z,0.47
2022-11-13T06:29:23.359Z,0.50
2022-11-13T06:34:24.754Z,0.47
2022-11-13T06:39:26.224Z,0.50
2022-11-13T06:44:27.781Z,0.60
2022-11-13T06:49:29.514Z,0.30
2022-11-13T06:54:30.913Z,0.50
2022-11-13T06:59:32.299Z,0.50
2022-11-13T07:04:33.772Z,0.47
2022-11-13T07:09:35.163Z,0.40
2022-11-13T07:14:36.595Z,0.50
2022-11-13T07:19:38.003Z,0.60
2022-11-13T07:24:39.483Z,0.57
2022-11-13T07:29:40.898Z,0.82
2022-11-13T07:34:42.329Z,1.20
2022-11-13T07:39:43.733Z,1.10
2022-11-13T07:44:54.447Z,0.90
2022-11-13T07:50:04.347Z,0.75
2022-11-13T07:55:09.641Z,0.68
2022-11-13T08:00:11.309Z,0.60
2022-11-13T08:05:12.722Z,0.70
2022-11-13T08:10:14.535Z,0.60
2022-11-13T08:15:15.971Z,0.90
2022-11-13T08:20:17.428Z,0.75
2022-11-13T08:25:19.163Z,0.68
2022-11-13T08:30:21.004Z,0.85
2022-11-13T08:35:26.736Z,0.40
2022-11-13T08:40:30.908Z,0.60
2022-11-13T08:45:32.502Z,0.80
2022-11-13T08:50:34.434Z,0.52
2022-11-13T08:55:35.862Z,0.63
2022-11-13T09:00:37.301Z,0.80
2022-11-13T09:05:38.780Z,0.75
2022-11-13T09:10:40.213Z,0.88
2022-11-13T09:15:42.260Z,0.75
2022-11-13T09:20:43.680Z,0.98
2022-11-13T09:25:45.099Z,0.68
2022-11-13T09:30:46.562Z,0.80
2022-11-13T09:35:48.007Z,0.75
2022-11-13T09:40:52.994Z,0.93
2022-11-13T09:45:56.351Z,0.80
2022-11-13T09:50:59.359Z,0.93
2022-11-13T09:56:08.225Z,1.02
2022-11-13T10:01:15.996Z,0.65
2022-11-13T10:06:27.091Z,0.68
2022-11-13T10:11:34.255Z,0.73
2022-11-13T10:16:39.203Z,1.10
2022-11-13T10:22:19.662Z,1.08
2022-11-13T10:27:19.811Z,0.88
2022-11-13T10:32:23.395Z,1.00
2022-11-13T10:37:25.252Z,1.38
2022-11-13T10:42:32.364Z,1.33
2022-11-13T10:48:02.509Z,1.33
2022-11-13T10:52:56.475Z,1.13
2022-11-13T10:57:58.719Z,0.90
2022-11-13T11:03:00.507Z,1.10
2022-11-13T11:08:08.164Z,0.93
2022-11-13T11:13:20.391Z,1.27
2022-11-13T11:18:34.398Z,1.77
2022-11-13T11:23:41.834Z,2.03
2022-11-13T11:28:46.451Z,1.70
2022-11-13T11:33:50.988Z,1.85
2022-11-13T11:38:55.578Z,1.67
2022-11-13T11:44:02.245Z,1.48
2022-11-13T11:49:03.715Z,1.40
2022-11-13T11:54:23.783Z,1.55
2022-11-13T11:59:40.473Z,1.93
2022-11-13T12:04:44.813Z,2.17
2022-11-13T12:10:01.324Z,1.48
2022-11-13T12:15:08.794Z,0.95
2022-11-13T12:20:13.038Z,1.10
2022-11-13T12:25:14.548Z,1.15
2022-11-13T12:30:23.055Z,2.67
2022-11-13T12:35:25.591Z,1.85
2022-11-13T12:40:45.506Z,1.73
2022-11-13T12:45:52.158Z,1.50
2022-11-13T12:50:58.195Z,1.02
2022-11-13T12:56:03.007Z,1.13
2022-11-13T13:01:07.373Z,0.95
2022-11-13T13:06:12.408Z,0.93
2022-11-13T13:11:13.992Z,0.88
2022-11-13T13:16:26.051Z,1.05
2022-11-13T13:21:27.486Z,1.23
2022-11-13T13:26:30.127Z,1.30
2022-11-13T13:31:43.672Z,1.42
2022-11-13T13:36:45.080Z,1.70
2022-11-13T13:41:49.649Z,2.13
2022-11-13T13:46:51.543Z,1.88
2022-11-13T13:51:54.468Z,2.30
2022-11-13T13:56:57.065Z,2.30
2022-11-13T14:02:00.075Z,2.38
2022-11-13T14:07:02.248Z,2.50
2022-11-13T14:12:09.663Z,2.30
2022-11-13T14:17:12.035Z,2.47
2022-11-13T14:22:13.587Z,2.95
2022-11-13T14:27:19.592Z,1.92
2022-11-13T14:32:22.562Z,1.98
2022-11-13T14:37:28.771Z,1.92
2022-11-13T14:42:37.429Z,2.08
2022-11-13T14:47:39.041Z,2.97
2022-11-13T14:52:40.508Z,2.85
2022-11-13T14:57:48.782Z,2.78
2022-11-13T15:02:50.240Z,2.53
2022-11-13T15:07:52.995Z,2.75
2022-11-13T15:12:54.561Z,2.63
2022-11-13T15:17:56.124Z,3.10
2022-11-13T15:22:58.649Z,2.13
2022-11-13T15:28:00.155Z,2.20
2022-11-13T15:33:02.787Z,2.38
2022-11-13T15:38:04.240Z,2.05
2022-11-13T15:43:06.590Z,2.88
2022-11-13T15:48:09.663Z,3.20
2022-11-13T15:53:13.028Z,2.47
2022-11-13T15:58:15.942Z,2.80
2022-11-13T16:03:19.263Z,2.20
2022-11-13T16:08:20.704Z,2.47
2022-11-13T16:13:22.159Z,2.38
2022-11-13T16:18:25.217Z,2.67
2022-11-13T16:23:26.963Z,2.75
2022-11-13T16:28:31.491Z,2.50
2022-11-13T16:33:35.928Z,2.15
2022-11-13T16:38:37.366Z,2.67
2022-11-13T16:43:39.142Z,3.50
2022-11-13T16:48:41.899Z,2.95
2022-11-13T16:53:43.572Z,2.72
2022-11-13T16:58:45.039Z,3.50
2022-11-13T17:03:46.499Z,3.40
2022-11-13T17:08:51.746Z,3.90
2022-11-13T17:13:54.486Z,3.78
2022-11-13T17:18:56.263Z,4.75
2022-11-13T17:23:58.613Z,4.30
2022-11-13T17:29:00.090Z,3.80
2022-11-13T17:34:01.590Z,4.50
2022-11-13T17:39:03.223Z,4.80
2022-11-13T17:44:04.909Z,4.45
2022-11-13T17:49:06.682Z,3.85
2022-11-13T17:54:08.215Z,4.43
2022-11-13T17:59:11.127Z,4.68
2022-11-13T18:04:12.602Z,4.40
2022-11-13T18:09:14.060Z,4.72
2022-11-13T18:14:15.519Z,4.15
2022-11-13T18:19:16.954Z,2.90
2022-11-13T18:24:19.067Z,3.30
2022-11-13T18:29:21.779Z,2.88
2022-11-13T18:34:23.417Z,3.75
2022-11-13T18:39:24.849Z,3.63
2022-11-13T18:44:26.413Z,3.72
2022-11-13T18:49:28.198Z,3.50
2022-11-13T18:54:29.675Z,6.13
2022-11-13T18:59:32.548Z,3.92
2022-11-13T19:04:34.683Z,3.28
2022-11-13T19:09:36.119Z,2.58
2022-11-13T19:14:37.565Z,2.40
2022-11-13T19:19:40.953Z,3.75
2022-11-13T19:24:42.406Z,3.03
2022-11-13T19:29:43.942Z,3.00
2022-11-13T19:34:46.697Z,3.42
2022-11-13T19:39:48.258Z,2.42
2022-11-13T19:44:49.844Z,2.58
2022-11-13T19:49:51.526Z,2.97
2022-11-13T19:54:52.941Z,3.15
2022-11-13T19:59:54.350Z,3.10
2022-11-13T20:04:55.775Z,2.00
2022-11-13T20:09:57.236Z,2.00
2022-11-13T20:14:59.706Z,1.67
2022-11-13T20:20:01.139Z,1.90
2022-11-13T20:25:02.696Z,1.40
2022-11-13T20:30:04.567Z,2.70
2022-11-13T20:35:07.104Z,2.80
2022-11-13T20:40:08.825Z,2.20
2022-11-13T20:45:10.432Z,3.40
2022-11-13T20:50:11.970Z,11.95
2022-11-13T20:55:13.400Z,3.17
2022-11-13T21:00:15.047Z,1.58
2022-11-13T21:05:16.482Z,3.33
2022-11-13T21:10:18.055Z,1.50
2022-11-13T21:15:19.621Z,1.80
2022-11-13T21:20:21.048Z,0.98
2022-11-13T21:25:23.296Z,2.92
2022-11-13T21:30:24.961Z,1.35
2022-11-13T21:35:29.979Z,0.85
2022-11-13T21:40:31.542Z,1.17
2022-11-13T21:45:33.587Z,3.88
2022-11-13T21:50:35.171Z,0.93
2022-11-13T21:55:36.626Z,4.80
2022-11-13T22:00:38.012Z,10.80
2022-11-13T22:05:39.464Z,8.45
2022-11-13T22:10:40.865Z,13.02
2022-11-13T22:15:42.715Z,1.05
2022-11-13T22:20:44.172Z,1.30
2022-11-13T22:25:45.582Z,2.92
2022-11-13T22:30:47.003Z,1.80
2022-11-13T22:35:48.552Z,1.70
2022-11-13T22:40:49.991Z,0.85
2022-11-13T22:45:51.531Z,2.03
2022-11-13T22:50:53.146Z,1.48
2022-11-13T22:55:54.562Z,1.05
2022-11-13T23:00:56.077Z,1.60
2022-11-13T23:05:57.608Z,1.35
2022-11-13T23:10:59.028Z,1.15
2022-11-13T23:16:01.044Z,1.95
2022-11-13T23:21:02.604Z,1.20
2022-11-13T23:26:04.339Z,1.17
2022-11-13T23:31:05.907Z,1.35
2022-11-13T23:36:08.089Z,1.08
2022-11-13T23:41:10.527Z,1.02
2022-11-13T23:46:12.153Z,1.58
2022-11-13T23:51:13.592Z,1.40
2022-11-13T23:56:15.174Z,1.40
